Time;durP1;ratioP1;P1;durP2;ratioP2;P2;SDS_P1;SDS_P2;PMS_P1;PMS_P2;Temp;Humidity;BMP_temperature;BMP_pressure;BME280_temperature;BME280_humidity;BME280_pressure;Samples;Min_cycle;Max_cycle;Signal;HPM_P1;HPM_P2
2021/12/26 00:01:22;;;;;;;6.05;3.63;;;;;;;-11.92;72.44;97855.34;4860426;29;20187;-70
2021/12/26 00:03:48;;;;;;;6.88;2.95;;;;;;;-11.89;72.72;97855.34;4843735;29;20124;-67
2021/12/26 00:06:25;;;;;;;2.42;2.10;;;;;;;-11.78;72.49;97850.91;4828124;29;20056;-68
2021/12/26 00:08:50;;;;;;;4.95;2.47;;;;;;;-11.76;73.21;97859.47;4843444;29;20044;-72
2021/12/26 00:11:18;;;;;;;6.18;3.88;;;;;;;-11.89;73.75;97854.47;4860556;29;20052;-74
2021/12/26 00:13:52;;;;;;;4.47;2.97;;;;;;;-11.77;73.33;97846.63;4828810;29;20043;-70
2021/12/26 00:16:17;;;;;;;5.40;3.17;;;;;;;-11.77;73.14;97854.34;4860360;29;20041;-71
2021/12/26 00:18:45;;;;;;;6.90;3.92;;;;;;;-11.85;73.46;97856.16;4859862;29;20049;-70
2021/12/26 00:21:09;;;;;;;2.03;1.75;;;;;;;-11.68;73.20;97851.63;4860261;29;20048;-68
2021/12/26 00:23:35;;;;;;;6.65;3.25;;;;;;;-11.78;73.22;97847.50;4843632;29;20071;-69
2021/12/26 00:26:00;;;;;;;5.82;2.55;;;;;;;-11.76;73.87;97863.75;4856678;29;20527;-70
2021/12/26 00:28:27;;;;;;;2.78;1.92;;;;;;;-11.67;74.48;97858.47;4859117;29;20044;-70
2021/12/26 00:30:54;;;;;;;6.90;3.05;;;;;;;-11.60;73.95;97867.78;4859363;29;20055;-69
2021/12/26 00:33:45;;;;;;;4.93;2.78;;;;;;;-11.43;74.06;97865.03;4860276;29;20037;-72
2021/12/26 00:36:13;;;;;;;4.45;2.97;;;;;;;-11.26;74.45;97869.91;4859331;29;20044;-70
2021/12/26 00:38:38;;;;;;;3.97;2.92;;;;;;;-11.15;73.68;97871.47;4860813;29;20123;-71
2021/12/26 00:41:04;;;;;;;3.03;1.52;;;;;;;-10.96;73.51;97866.09;4860564;29;20044;-69
2021/12/26 00:43:30;;;;;;;3.97;2.20;;;;;;;-11.06;73.28;97850.75;4860028;29;20083;-69
2021/12/26 00:45:55;;;;;;;6.97;4.07;;;;;;;-11.01;73.65;97837.84;4860351;29;20098;-71
2021/12/26 00:48:21;;;;;;;5.75;3.50;;;;;;;-10.91;73.75;97843.69;4860146;29;20138;-69
2021/12/26 00:51:13;;;;;;;6.55;2.58;;;;;;;-10.86;73.78;97847.06;4862193;29;20051;-73
2021/12/26 00:53:39;;;;;;;3.30;2.13;;;;;;;-10.64;73.56;97856.13;4862645;29;20048;-72
2021/12/26 00:56:05;;;;;;;4.55;3.10;;;;;;;-10.63;73.33;97842.41;4863882;29;20076;-69
2021/12/26 00:58:30;;;;;;;3.03;1.75;;;;;;;-10.55;72.76;97837.09;4862764;29;20160;-73
2021/12/26 01:00:55;;;;;;;3.95;2.78;;;;;;;-10.44;72.28;97836.06;4862955;29;20075;-71
2021/12/26 01:03:20;;;;;;;8.57;3.85;;;;;;;-10.62;73.44;97822.66;4862339;29;20066;-69
2021/12/26 01:05:56;;;;;;;5.10;3.38;;;;;;;-10.57;73.05;97829.41;4863807;29;20048;-70
2021/12/26 01:08:29;;;;;;;7.20;4.13;;;;;;;-10.57;73.33;97831.13;4847364;29;20048;-73
2021/12/26 01:10:59;;;;;;;5.38;3.45;;;;;;;-10.61;73.75;97825.19;4865638;29;20440;-72
2021/12/26 01:13:33;;;;;;;6.60;2.92;;;;;;;-10.48;73.91;97825.81;4865096;29;20100;-72
2021/12/26 01:16:11;;;;;;;5.03;3.38;;;;;;;-10.51;74.87;97818.16;4865162;29;20048;-72
2021/12/26 01:18:44;;;;;;;4.82;3.03;;;;;;;-10.42;74.19;97812.84;4864787;29;20127;-72
2021/12/26 01:21:17;;;;;;;5.90;3.05;;;;;;;-10.35;73.74;97811.84;4864976;29;20045;-72
2021/12/26 01:26:59;;;;;;;2.63;2.30;;;;;;;-10.36;73.23;97797.28;4831155;29;20092;-72
2021/12/26 01:29:29;;;;;;;5.20;3.08;;;;;;;-10.44;73.69;97794.00;4832823;29;20071;-72
2021/12/26 01:31:55;;;;;;;7.38;3.33;;;;;;;-10.47;73.20;97802.63;4847348;29;20047;-68
2021/12/26 01:34:52;;;;;;;3.72;2.75;;;;;;;-10.41;73.58;97791.38;4782189;29;20140;-70
2021/12/26 01:38:14;;;;;;;5.35;3.28;;;;;;;-10.47;75.14;97792.31;4784242;29;20052;-71
2021/12/26 01:41:10;;;;;;;4.75;3.45;;;;;;;-10.49;75.28;97785.50;4775524;29;20770;-71
2021/12/26 01:44:03;;;;;;;5.47;3.65;;;;;;;-10.34;74.86;97790.38;4771302;29;20050;-71
2021/12/26 01:46:40;;;;;;;4.15;2.63;;;;;;;-10.25;75.31;97797.94;4756703;29;20054;-69
2021/12/26 01:49:20;;;;;;;7.15;3.63;;;;;;;-10.13;75.30;97799.38;4772169;29;20086;-69
2021/12/26 01:51:49;;;;;;;4.20;3.25;;;;;;;-9.91;74.04;97796.38;4787304;29;20057;-70
2021/12/26 01:54:26;;;;;;;9.07;3.08;;;;;;;-9.94;74.51;97793.88;4798208;29;20128;-70
2021/12/26 01:56:51;;;;;;;5.03;3.30;;;;;;;-9.87;73.76;97786.84;4798302;29;20053;-72
2021/12/26 01:59:16;;;;;;;7.13;3.70;;;;;;;-9.86;74.39;97782.53;4782788;29;20185;-74
2021/12/26 02:01:47;;;;;;;3.95;2.60;;;;;;;-9.88;73.91;97781.72;4768052;29;20052;-71
2021/12/26 02:04:12;;;;;;;3.83;3.15;;;;;;;-9.94;74.03;97778.41;4766541;29;20062;-72
2021/12/26 02:06:40;;;;;;;3.38;2.50;;;;;;;-9.84;74.20;97767.91;4780868;29;20065;-69
2021/12/26 02:09:07;;;;;;;4.28;2.47;;;;;;;-9.93;75.05;97774.91;4807278;29;20053;-68
2021/12/26 02:11:32;;;;;;;7.43;4.25;;;;;;;-10.13;75.46;97771.03;4825195;29;20084;-67
2021/12/26 02:13:58;;;;;;;8.68;3.85;;;;;;;-10.07;75.33;97782.09;4827214;29;20059;-68
2021/12/26 02:16:26;;;;;;;3.88;3.03;;;;;;;-9.93;75.48;97762.03;4827529;29;20075;-67
2021/12/26 02:18:51;;;;;;;7.22;4.60;;;;;;;-10.15;76.45;97767.66;4827122;29;20504;-68
2021/12/26 02:24:06;;;;;;;3.25;2.05;;;;;;;-9.92;75.84;97760.31;4827047;29;20084;-72
2021/12/26 02:29:16;;;;;;;5.50;3.83;;;;;;;-10.01;76.64;97765.66;4845265;29;20444;-73
2021/12/26 02:31:41;;;;;;;6.45;3.95;;;;;;;-10.13;77.17;97777.06;4845193;29;20071;-71
2021/12/26 02:34:06;;;;;;;3.17;2.38;;;;;;;-9.95;76.58;97756.09;4829837;29;20037;-69
2021/12/26 02:36:31;;;;;;;4.93;3.00;;;;;;;-9.98;77.40;97763.88;4845148;29;20062;-70
2021/12/26 02:38:56;;;;;;;5.00;3.30;;;;;;;-9.94;77.22;97762.09;4845490;29;20048;-71
2021/12/26 02:41:21;;;;;;;5.47;3.65;;;;;;;-9.96;77.33;97762.13;4861792;29;20113;-69
2021/12/26 02:43:46;;;;;;;6.28;4.05;;;;;;;-9.96;77.20;97753.53;4829516;29;20071;-71
2021/12/26 02:46:11;;;;;;;8.68;3.50;;;;;;;-9.99;77.16;97764.75;4845142;29;20056;-71
2021/12/26 02:48:39;;;;;;;6.88;3.13;;;;;;;-9.79;76.50;97754.03;4861475;29;20052;-71
2021/12/26 02:51:06;;;;;;;4.88;3.20;;;;;;;-9.79;76.72;97748.00;4829070;29;20100;-71
2021/12/26 02:53:31;;;;;;;6.90;3.92;;;;;;;-9.92;77.02;97755.16;4844989;29;20047;-69
2021/12/26 02:55:59;;;;;;;3.70;2.40;;;;;;;-9.85;76.89;97754.16;4845173;29;20048;-71
2021/12/26 02:58:24;;;;;;;5.72;3.47;;;;;;;-9.79;76.55;97746.28;4829554;29;20104;-68
2021/12/26 03:00:51;;;;;;;4.82;3.30;;;;;;;-9.76;76.08;97756.53;4845172;29;20048;-63
2021/12/26 03:03:16;;;;;;;7.70;4.50;;;;;;;-9.79;76.77;97754.03;4829400;29;20052;-67
2021/12/26 03:05:43;;;;;;;4.65;2.72;;;;;;;-9.64;75.99;97745.97;4861583;29;20059;-65
2021/12/26 03:08:11;;;;;;;7.63;4.30;;;;;;;-9.82;76.68;97748.09;4845054;29;20052;-67
2021/12/26 03:10:35;;;;;;;5.07;3.55;;;;;;;-9.82;76.74;97732.63;4846117;29;20048;-67
2021/12/26 03:13:07;;;;;;;5.47;2.60;;;;;;;-9.73;77.08;97735.00;4845078;29;20052;-68
2021/12/26 03:15:33;;;;;;;7.63;4.53;;;;;;;-9.67;76.35;97733.13;4845192;29;20522;-68
2021/12/26 03:17:59;;;;;;;6.30;4.22;;;;;;;-9.74;76.52;97733.31;4830066;29;20519;-69
2021/12/26 03:20:27;;;;;;;7.35;3.97;;;;;;;-9.84;76.21;97734.41;4845166;29;20052;-68
2021/12/26 03:22:52;;;;;;;5.78;3.33;;;;;;;-9.78;77.01;97722.22;4845434;29;20388;-66
2021/12/26 03:25:22;;;;;;;6.60;3.08;;;;;;;-9.86;77.04;97723.25;4860565;29;20435;-69
2021/12/26 03:27:48;;;;;;;5.30;2.83;;;;;;;-9.80;77.05;97718.81;4828959;29;20051;-69
2021/12/26 03:30:17;;;;;;;3.40;2.17;;;;;;;-9.78;76.24;97721.34;4861404;29;20051;-68
2021/12/26 03:32:43;;;;;;;4.47;2.67;;;;;;;-9.93;76.69;97720.78;4844615;29;20067;-67
2021/12/26 03:35:10;;;;;;;4.07;2.75;;;;;;;-9.86;77.35;97725.84;4829235;29;20095;-69
2021/12/26 03:37:36;;;;;;;6.30;3.63;;;;;;;-9.81;76.85;97721.41;4861745;29;20051;-67
2021/12/26 03:40:09;;;;;;;4.40;2.75;;;;;;;-9.80;76.52;97718.81;4846139;29;20116;-68
2021/12/26 03:42:34;;;;;;;4.80;3.75;;;;;;;-9.97;77.03;97719.19;4845547;29;20045;-68
2021/12/26 03:44:59;;;;;;;6.82;3.88;;;;;;;-9.87;77.13;97711.25;4845675;29;20200;-68
2021/12/26 03:47:24;;;;;;;5.93;4.15;;;;;;;-9.84;77.85;97716.34;4844911;29;20048;-67
2021/12/26 03:49:50;;;;;;;7.35;3.90;;;;;;;-9.83;77.02;97724.06;4845298;29;20063;-67
2021/12/26 03:52:15;;;;;;;5.28;3.70;;;;;;;-9.76;77.59;97719.59;4845163;29;20052;-67
2021/12/26 03:54:40;;;;;;;6.75;3.65;;;;;;;-9.77;77.84;97730.78;4861865;29;20040;-66
2021/12/26 03:57:05;;;;;;;6.30;4.28;;;;;;;-9.76;77.72;97727.34;4844966;29;20048;-68
2021/12/26 03:59:31;;;;;;;3.60;2.25;;;;;;;-9.66;77.21;97731.41;4844855;29;20059;-67
2021/12/26 04:01:56;;;;;;;5.70;3.05;;;;;;;-9.53;76.99;97719.94;4844841;29;20056;-66
2021/12/26 04:04:21;;;;;;;5.72;3.80;;;;;;;-9.60;77.05;97716.66;4845382;29;20052;-67
2021/12/26 11:35:33;;;;;;;27.88;4.97;;;;;;;-6.51;74.94;97456.38;4856087;29;20099;-67
2021/12/26 11:38:05;;;;;;;6.25;3.42;;;;;;;-6.66;74.81;97451.78;4860833;29;20044;-67
2021/12/26 11:40:57;;;;;;;10.73;5.28;;;;;;;-6.81;74.69;97447.19;4860582;29;20131;-66
2021/12/26 11:43:50;;;;;;;5.32;3.35;;;;;;;-6.77;75.45;97453.94;4857931;29;20052;-68
2021/12/26 11:47:14;;;;;;;5.60;3.33;;;;;;;-6.57;76.11;97448.84;4854808;29;20419;-67
2021/12/26 11:50:16;;;;;;;4.88;3.33;;;;;;;-6.56;74.82;97447.09;4842781;29;20434;-67
2021/12/26 11:53:35;;;;;;;6.75;3.90;;;;;;;-6.81;74.98;97429.06;4783600;29;20050;-66
2021/12/26 11:56:12;;;;;;;9.48;4.00;;;;;;;-6.69;80.87;97434.63;4770356;29;20058;-67
2021/12/26 11:58:56;;;;;;;9.93;4.13;;;;;;;-6.62;82.17;97442.97;4781685;29;20148;-67
2021/12/26 12:01:24;;;;;;;30.35;5.55;;;;;;;-6.66;81.09;97438.84;4782491;29;20046;-66
2021/12/26 12:04:11;;;;;;;4.65;3.58;;;;;;;-6.66;79.13;97436.25;4784144;29;20058;-65
2021/12/26 12:07:08;;;;;;;8.10;4.25;;;;;;;-6.63;76.84;97433.53;4783569;29;20091;-65
2021/12/26 12:09:36;;;;;;;9.07;4.32;;;;;;;-6.74;76.54;97426.16;4784378;29;20429;-65
2021/12/26 12:12:09;;;;;;;10.43;3.95;;;;;;;-6.60;75.93;97434.25;4785389;29;20455;-66
2021/12/26 12:14:54;;;;;;;5.50;3.45;;;;;;;-6.80;74.68;97417.78;4785578;29;20057;-65
2021/12/26 12:17:29;;;;;;;5.90;3.72;;;;;;;-6.81;76.24;97439.41;4785617;29;20144;-67
2021/12/26 12:20:16;;;;;;;7.05;4.68;;;;;;;-6.70;79.44;97429.50;4785640;29;20042;-64
2021/12/26 12:23:08;;;;;;;6.88;3.42;;;;;;;-6.69;80.97;97441.53;4785873;29;20592;-65
2021/12/26 12:25:33;;;;;;;5.80;3.70;;;;;;;-6.71;79.75;97431.22;4770072;29;20524;-64
2021/12/26 12:28:05;;;;;;;11.23;3.67;;;;;;;-6.76;77.79;97429.72;4793293;29;20588;-68
2021/12/26 12:30:32;;;;;;;8.50;4.32;;;;;;;-6.74;77.70;97422.72;4841011;29;20045;-66
2021/12/26 12:33:17;;;;;;;9.25;5.95;;;;;;;-6.69;78.19;97423.41;4842442;29;20065;-67
2021/12/26 12:35:50;;;;;;;9.50;4.78;;;;;;;-6.67;79.24;97434.56;4842019;29;20061;-66
2021/12/26 12:38:24;;;;;;;8.15;4.90;;;;;;;-6.76;78.69;97424.53;4825607;29;20036;-67
2021/12/26 12:40:52;;;;;;;3.90;2.65;;;;;;;-6.57;79.30;97430.72;4842252;29;20059;-68
2021/12/26 12:43:20;;;;;;;8.05;3.03;;;;;;;-6.71;79.04;97431.22;4825806;29;20053;-68
2021/12/26 12:46:01;;;;;;;6.43;3.85;;;;;;;-6.55;79.65;97409.94;4842683;29;20055;-67
2021/12/26 12:48:29;;;;;;;5.68;4.10;;;;;;;-6.55;79.67;97408.19;4829067;29;20128;-71
2021/12/26 12:50:57;;;;;;;4.80;3.25;;;;;;;-6.58;79.37;97407.44;4845639;29;20151;-71
2021/12/26 12:53:43;;;;;;;9.30;4.63;;;;;;;-6.58;78.58;97410.03;4845323;29;20059;-68
2021/12/26 12:56:30;;;;;;;8.13;3.53;;;;;;;-6.63;78.48;97411.03;4845700;29;20053;-66
2021/12/26 12:59:14;;;;;;;7.88;4.10;;;;;;;-6.62;78.92;97409.31;4832812;29;20067;-67
2021/12/26 13:01:51;;;;;;;10.98;3.63;;;;;;;-6.59;78.10;97409.19;4828925;29;20049;-70
2021/12/26 13:04:22;;;;;;;5.90;3.88;;;;;;;-6.71;78.63;97417.44;4828556;29;20135;-65
2021/12/26 13:06:55;;;;;;;9.65;4.85;;;;;;;-6.66;78.84;97405.16;4813341;29;20786;-65
2021/12/26 13:09:23;;;;;;;3.00;2.45;;;;;;;-6.56;79.37;97416.84;4846501;29;20051;-65
2021/12/26 13:11:49;;;;;;;10.30;4.85;;;;;;;-6.64;78.84;97417.13;4863861;29;20048;-66
2021/12/26 13:14:38;;;;;;;7.43;4.20;;;;;;;-6.69;78.47;97413.03;4846714;29;20045;-65
2021/12/26 13:17:05;;;;;;;7.43;4.72;;;;;;;-6.74;79.91;97413.22;4846202;29;20052;-66
2021/12/26 13:19:30;;;;;;;6.50;3.55;;;;;;;-6.60;80.18;97413.53;4863082;29;20179;-65
2021/12/26 13:21:57;;;;;;;6.50;4.13;;;;;;;-6.50;80.22;97414.00;4862896;29;20056;-66
2021/12/26 13:24:34;;;;;;;6.07;3.65;;;;;;;-6.40;80.76;97411.91;4862826;29;20124;-67
2021/12/26 13:27:00;;;;;;;7.82;4.05;;;;;;;-6.49;85.11;97422.63;4846187;29;20059;-65
2021/12/26 13:29:25;;;;;;;6.68;3.60;;;;;;;-6.52;86.18;97423.59;4863270;29;20052;-65
2021/12/26 13:31:51;;;;;;;5.15;3.80;;;;;;;-6.53;86.88;97411.53;4862910;29;20045;-66
2021/12/26 13:34:16;;;;;;;9.07;5.03;;;;;;;-6.55;86.87;97426.31;4845707;29;20147;-67
2021/12/26 13:36:43;;;;;;;6.45;3.80;;;;;;;-6.48;87.54;97409.63;4830973;29;20048;-65
2021/12/26 13:39:20;;;;;;;2.40;2.17;;;;;;;-6.38;87.72;97423.06;4863126;29;20052;-66
2021/12/26 13:41:46;;;;;;;9.05;4.28;;;;;;;-6.38;87.38;97415.28;4863004;29;20045;-66
2021/12/26 13:44:12;;;;;;;9.18;4.00;;;;;;;-6.35;86.15;97417.75;4846038;29;20052;-66
2021/12/26 13:46:38;;;;;;;7.82;4.63;;;;;;;-6.54;85.06;97420.19;4862651;29;20464;-67
2021/12/26 13:49:11;;;;;;;12.38;4.45;;;;;;;-6.58;83.83;97423.00;4862571;29;20136;-67
2021/12/26 13:52:01;;;;;;;14.30;4.55;;;;;;;-6.41;83.06;97425.75;4862850;29;20491;-66
2021/12/26 13:54:37;;;;;;;9.38;4.07;;;;;;;-6.33;82.08;97429.75;4862550;29;20059;-66
2021/12/26 13:57:07;;;;;;;7.28;4.40;;;;;;;-6.39;81.93;97435.16;4861757;29;20045;-66
2021/12/26 13:59:43;;;;;;;7.25;4.35;;;;;;;-6.27;80.60;97424.31;4830122;29;20116;-66
2021/12/26 14:02:11;;;;;;;7.97;4.60;;;;;;;-6.34;80.34;97432.41;4862571;29;20567;-67
2021/12/26 14:04:39;;;;;;;7.22;4.28;;;;;;;-6.34;79.69;97443.63;4862358;29;20053;-66
2021/12/26 14:07:13;;;;;;;6.65;3.65;;;;;;;-6.26;79.61;97438.97;4862414;29;20057;-66
2021/12/26 14:09:49;;;;;;;7.80;4.03;;;;;;;-6.10;79.94;97452.19;4845335;29;20049;-66
2021/12/26 14:12:34;;;;;;;6.32;4.10;;;;;;;-6.14;79.56;97444.56;4862229;29;20048;-66
2021/12/26 14:15:28;;;;;;;10.45;4.63;;;;;;;-6.10;79.16;97443.56;4845749;29;20396;-66
2021/12/26 14:17:56;;;;;;;5.50;3.50;;;;;;;-6.07;79.55;97439.06;4863141;29;20116;-66
2021/12/26 14:20:26;;;;;;;8.10;3.92;;;;;;;-6.22;79.15;97447.47;4862534;29;20056;-67
2021/12/26 14:22:55;;;;;;;7.13;4.32;;;;;;;-6.04;79.28;97451.06;4845792;29;20040;-67
2021/12/26 14:25:21;;;;;;;10.38;4.93;;;;;;;-6.14;79.54;97452.34;4845382;29;20076;-67
2021/12/26 14:27:50;;;;;;;7.22;3.67;;;;;;;-6.23;79.47;97448.38;4863470;29;20048;-68
2021/12/26 14:30:18;;;;;;;6.00;3.45;;;;;;;-6.01;79.59;97458.72;4846842;29;20044;-67
2021/12/26 14:33:00;;;;;;;8.63;4.97;;;;;;;-6.14;80.14;97462.72;4866728;29;20051;-65
2021/12/26 14:35:31;;;;;;;7.95;3.58;;;;;;;-6.10;80.12;97465.16;4853762;29;20262;-65
2021/12/26 14:38:06;;;;;;;6.05;3.28;;;;;;;-6.05;80.04;97470.97;4866304;29;20096;-67
2021/12/26 14:40:33;;;;;;;6.28;2.95;;;;;;;-6.06;79.61;97484.84;4847260;29;20083;-67
2021/12/26 14:42:58;;;;;;;6.07;3.63;;;;;;;-6.24;79.63;97478.66;4862129;29;20044;-66
2021/12/26 14:45:24;;;;;;;7.82;3.55;;;;;;;-6.25;79.86;97492.50;4862289;29;20147;-66
2021/12/26 14:47:50;;;;;;;5.65;3.13;;;;;;;-6.24;79.39;97493.34;4845609;29;20411;-66
2021/12/26 14:50:23;;;;;;;4.82;2.83;;;;;;;-6.10;80.05;97487.63;4861986;29;20056;-66
2021/12/26 14:52:55;;;;;;;6.25;3.08;;;;;;;-6.13;79.51;97503.31;4862007;29;20044;-68
2021/12/26 14:55:24;;;;;;;8.95;4.20;;;;;;;-6.08;79.29;97504.81;4862187;29;20047;-66
2021/12/26 14:57:50;;;;;;;4.22;2.65;;;;;;;-5.96;79.55;97512.09;4862002;29;20073;-67
2021/12/26 15:00:25;;;;;;;8.88;3.38;;;;;;;-5.95;79.59;97505.16;4845003;29;20522;-66
2021/12/26 15:02:52;;;;;;;6.57;3.13;;;;;;;-5.87;79.51;97510.88;4861333;29;20055;-65
2021/12/26 15:05:29;;;;;;;5.15;2.70;;;;;;;-5.82;79.29;97523.66;4845074;29;20056;-69
2021/12/26 15:08:01;;;;;;;8.55;3.72;;;;;;;-5.75;79.47;97535.47;4829231;29;20043;-67
2021/12/26 15:10:32;;;;;;;5.18;3.05;;;;;;;-5.74;79.38;97558.75;4861304;29;20132;-66
2021/12/26 15:12:58;;;;;;;3.45;1.88;;;;;;;-5.76;79.56;97555.41;4855688;29;20048;-70
2021/12/26 15:15:29;;;;;;;4.43;2.85;;;;;;;-5.82;79.29;97570.34;4856116;29;20567;-67
2021/12/26 15:18:07;;;;;;;4.45;2.35;;;;;;;-5.91;79.62;97576.78;4852889;29;20051;-68
2021/12/26 15:20:40;;;;;;;5.10;3.00;;;;;;;-6.08;80.25;97569.63;4828566;29;20052;-67
2021/12/26 15:23:18;;;;;;;7.80;2.90;;;;;;;-6.09;79.55;97582.66;4841519;29;20131;-70
2021/12/26 15:25:53;;;;;;;4.70;2.33;;;;;;;-5.84;79.48;97598.94;4842312;29;20419;-69
2021/12/26 15:28:21;;;;;;;6.00;2.03;;;;;;;-6.22;78.24;97599.59;4842509;29;20176;-67
2021/12/26 15:30:59;;;;;;;6.07;2.63;;;;;;;-6.13;77.58;97604.44;4842377;29;20045;-68
2021/12/26 15:33:32;;;;;;;4.40;2.17;;;;;;;-6.33;75.86;97615.56;4823706;29;20056;-66
2021/12/26 15:35:59;;;;;;;4.22;2.03;;;;;;;-6.64;74.55;97628.75;4854401;29;20546;-64
2021/12/26 15:38:25;;;;;;;3.05;2.60;;;;;;;-6.56;74.08;97618.97;4857074;29;20138;-66
2021/12/26 15:40:52;;;;;;;2.95;1.80;;;;;;;-6.68;72.59;97630.63;4854456;29;20048;-68
2021/12/26 15:43:21;;;;;;;3.67;1.85;;;;;;;-6.56;72.80;97644.91;4856728;29;20048;-66
2021/12/26 15:45:49;;;;;;;3.97;1.67;;;;;;;-6.52;72.39;97655.97;4842962;29;20049;-68
2021/12/26 15:48:39;;;;;;;2.08;1.80;;;;;;;-6.43;72.55;97669.47;4853848;29;20044;-69
2021/12/26 15:51:04;;;;;;;3.13;2.00;;;;;;;-6.48;72.94;97678.31;4810440;29;20029;-66
2021/12/26 15:53:29;;;;;;;5.03;2.25;;;;;;;-6.73;73.15;97680.91;4855305;29;20744;-68
2021/12/26 15:55:55;;;;;;;7.00;2.05;;;;;;;-6.84;73.32;97680.41;4838936;29;20056;-69
2021/12/26 15:58:46;;;;;;;2.60;1.63;;;;;;;-6.93;73.01;97693.69;4854368;29;20059;-68
2021/12/26 16:01:15;;;;;;;1.55;1.08;;;;;;;-6.88;73.57;97700.38;4852926;29;20048;-68
2021/12/26 16:03:41;;;;;;;3.80;2.63;;;;;;;-7.25;73.32;97720.63;4854795;29;20076;-69
2021/12/26 16:06:07;;;;;;;8.93;2.80;;;;;;;-7.30;73.27;97730.25;4857980;29;20546;-70
2021/12/26 16:08:33;;;;;;;4.28;2.40;;;;;;;-7.31;72.82;97726.81;4859686;29;20389;-68
2021/12/26 16:11:01;;;;;;;3.60;2.63;;;;;;;-7.43;72.12;97737.53;4840925;29;20065;-67
2021/12/26 16:13:27;;;;;;;7.28;2.17;;;;;;;-7.49;71.79;97746.34;4855730;29;20523;-68
2021/12/26 16:15:53;;;;;;;2.45;1.77;;;;;;;-7.65;69.78;97737.34;4821271;29;20040;-66
2021/12/26 16:18:21;;;;;;;4.07;2.60;;;;;;;-7.62;70.86;97745.03;4853215;29;20040;-68
2021/12/26 16:20:52;;;;;;;3.30;1.67;;;;;;;-7.76;72.25;97750.59;4840127;29;20056;-72
2021/12/26 16:23:17;;;;;;;6.75;2.10;;;;;;;-7.74;73.00;97753.13;4855959;29;20055;-70
2021/12/26 16:25:42;;;;;;;6.82;2.22;;;;;;;-7.73;72.92;97768.63;4845814;29;20049;-69
2021/12/26 16:28:07;;;;;;;2.97;2.33;;;;;;;-7.96;70.24;97781.34;4862882;29;20049;-70
2021/12/26 16:30:37;;;;;;;3.33;1.75;;;;;;;-7.88;70.11;97786.28;4862383;29;20041;-68
2021/12/26 16:33:06;;;;;;;2.60;1.75;;;;;;;-8.05;67.75;97794.53;4845989;29;20061;-69
2021/12/26 16:35:32;;;;;;;2.13;1.50;;;;;;;-8.15;66.42;97808.59;4850314;29;20080;-67
2021/12/26 16:38:19;;;;;;;3.25;2.08;;;;;;;-8.38;64.30;97823.88;4850002;29;20127;-67
2021/12/26 16:41:11;;;;;;;4.03;1.67;;;;;;;-8.28;65.28;97840.81;4863725;29;20049;-69
2021/12/26 16:43:38;;;;;;;1.73;1.35;;;;;;;-8.37;65.37;97846.25;4846948;29;20491;-69
2021/12/26 16:46:04;;;;;;;1.58;1.35;;;;;;;-8.65;64.61;97834.00;4863415;29;20048;-67
2021/12/26 16:48:53;;;;;;;1.30;1.17;;;;;;;-8.72;65.18;97854.84;4846568;29;20109;-69
2021/12/26 16:51:20;;;;;;;3.42;1.30;;;;;;;-8.49;66.78;97876.66;4863606;29;20492;-68
2021/12/26 16:53:44;;;;;;;3.13;2.03;;;;;;;-8.78;64.31;97880.81;4863190;29;20076;-68
2021/12/26 16:56:10;;;;;;;3.63;1.92;;;;;;;-8.81;64.56;97887.75;4863398;29;20044;-68
2021/12/26 16:58:36;;;;;;;4.82;2.45;;;;;;;-9.00;62.97;97883.00;4863046;29;20048;-67
2021/12/26 17:01:05;;;;;;;3.92;2.72;;;;;;;-8.91;63.95;97903.47;4830746;29;20053;-70
2021/12/26 17:03:56;;;;;;;5.38;1.80;;;;;;;-9.21;63.34;97904.97;4860249;29;20454;-70
2021/12/26 17:06:26;;;;;;;3.90;2.50;;;;;;;-9.34;63.23;97909.53;4862478;29;20512;-69
2021/12/26 17:08:53;;;;;;;2.28;1.80;;;;;;;-9.20;63.66;97914.41;4863067;29;20104;-69
2021/12/26 17:11:24;;;;;;;3.00;2.20;;;;;;;-9.21;63.75;97923.03;4815101;29;20072;-67
2021/12/26 17:13:50;;;;;;;2.72;1.55;;;;;;;-9.28;63.17;97936.97;4863189;29;20036;-68
2021/12/26 17:16:16;;;;;;;21.52;3.60;;;;;;;-9.60;64.01;97937.59;4863644;29;20052;-69
2021/12/26 17:18:41;;;;;;;2.42;1.80;;;;;;;-9.53;67.38;97954.63;4862988;29;20415;-68
2021/12/26 17:21:07;;;;;;;3.92;2.38;;;;;;;-9.76;64.31;97962.78;4863416;29;20040;-69
2021/12/26 17:23:32;;;;;;;2.90;1.70;;;;;;;-9.60;65.35;97960.81;4863186;29;20815;-69
2021/12/26 17:25:57;;;;;;;1.33;1.23;;;;;;;-9.48;66.69;97973.47;4862877;29;20550;-69
2021/12/26 17:28:25;;;;;;;5.95;3.50;;;;;;;-9.83;61.91;97968.94;4846290;29;20113;-70
2021/12/26 17:30:53;;;;;;;2.55;1.52;;;;;;;-9.79;62.20;97977.47;4846287;29;20728;-69
2021/12/26 17:33:22;;;;;;;3.95;2.28;;;;;;;-9.77;61.62;97979.13;4844382;29;20048;-68
2021/12/26 17:35:48;;;;;;;2.42;2.08;;;;;;;-9.86;61.13;97996.50;4857729;29;20045;-66
2021/12/26 17:38:13;;;;;;;4.40;2.25;;;;;;;-9.80;61.73;98001.53;4828209;29;20047;-66
2021/12/26 17:40:39;;;;;;;2.35;1.40;;;;;;;-9.71;61.53;97998.81;4852812;29;20044;-66
2021/12/26 17:43:05;;;;;;;1.75;1.55;;;;;;;-9.95;60.44;98008.66;4861742;29;20052;-64
2021/12/26 17:45:35;;;;;;;2.97;2.30;;;;;;;-9.99;60.13;98009.59;4858493;29;20048;-67
2021/12/26 17:48:26;;;;;;;3.63;1.80;;;;;;;-9.99;60.23;98021.63;4856805;29;20132;-69
2021/12/26 17:50:53;;;;;;;3.40;1.92;;;;;;;-10.08;60.59;98038.09;4855994;29;20048;-67
2021/12/26 17:53:20;;;;;;;3.60;1.88;;;;;;;-10.04;60.84;98039.72;4858080;29;20100;-66
2021/12/26 17:55:48;;;;;;;2.63;2.08;;;;;;;-10.12;61.17;98046.72;4863817;29;20047;-66
2021/12/26 17:58:15;;;;;;;2.80;1.80;;;;;;;-10.04;62.12;98052.59;4863634;29;20049;-69
2021/12/26 18:00:42;;;;;;;2.67;1.67;;;;;;;-10.03;62.39;98059.47;4863820;29;20526;-67
2021/12/26 18:03:07;;;;;;;6.28;2.05;;;;;;;-10.21;62.27;98062.34;4848952;29;20865;-68
2021/12/26 18:05:35;;;;;;;3.47;2.20;;;;;;;-10.15;62.49;98077.69;4867837;29;20048;-71
2021/12/26 18:08:00;;;;;;;4.05;2.58;;;;;;;-10.33;62.69;98070.25;4870424;29;20047;-70
2021/12/26 18:10:25;;;;;;;4.78;2.45;;;;;;;-10.40;62.51;98076.38;4871625;29;20040;-72
2021/12/26 18:12:52;;;;;;;4.68;2.88;;;;;;;-10.37;62.94;98081.47;4869628;29;20144;-70
2021/12/26 18:15:21;;;;;;;3.25;1.77;;;;;;;-10.21;63.05;98090.69;4870221;29;20060;-71
2021/12/26 18:17:49;;;;;;;2.15;1.58;;;;;;;-10.33;63.34;98093.44;4853445;29;20058;-75
2021/12/26 18:20:19;;;;;;;5.25;3.78;;;;;;;-10.53;63.34;98103.16;4870474;29;20052;-75
2021/12/26 18:22:44;;;;;;;4.60;2.22;;;;;;;-10.45;63.55;98106.47;4869263;29;20052;-76
2021/12/26 18:25:13;;;;;;;2.28;1.98;;;;;;;-10.48;63.81;98111.66;4865911;29;20100;-72
2021/12/26 18:27:41;;;;;;;3.10;1.95;;;;;;;-10.31;64.08;98115.75;4860698;29;20055;-66
2021/12/26 18:30:14;;;;;;;3.80;1.67;;;;;;;-10.31;63.93;98117.47;4845993;29;20040;-69
2021/12/26 18:32:43;;;;;;;5.95;2.65;;;;;;;-10.40;63.94;98123.59;4830804;29;20060;-66
2021/12/26 18:35:10;;;;;;;3.28;2.67;;;;;;;-10.29;64.27;98126.03;4845783;29;20660;-69
2021/12/26 18:37:42;;;;;;;3.22;2.28;;;;;;;-10.30;64.31;98144.94;4862198;29;20052;-70
2021/12/26 18:40:13;;;;;;;5.68;2.53;;;;;;;-10.35;64.32;98149.28;4862878;29;20135;-68
2021/12/26 18:42:42;;;;;;;3.63;2.38;;;;;;;-10.33;64.67;98150.97;4862277;29;20048;-71
2021/12/26 18:45:13;;;;;;;3.15;2.20;;;;;;;-10.14;64.64;98142.94;4861457;29;20048;-67
2021/12/26 18:48:05;;;;;;;3.13;2.28;;;;;;;-10.07;63.96;98167.78;4844907;29;20056;-70
2021/12/26 18:50:32;;;;;;;4.00;2.50;;;;;;;-10.22;64.03;98157.69;4861781;29;20041;-69
2021/12/26 18:52:57;;;;;;;2.92;2.00;;;;;;;-10.06;64.75;98175.50;4862171;29;20147;-70
2021/12/26 18:55:24;;;;;;;5.65;2.67;;;;;;;-10.32;65.03;98170.72;4863395;29;20064;-73
2021/12/26 18:57:49;;;;;;;4.20;1.95;;;;;;;-10.17;65.07;98176.50;4846218;29;20048;-73
2021/12/26 19:00:25;;;;;;;2.88;1.73;;;;;;;-10.15;65.54;98190.19;4863210;29;20499;-73
2021/12/26 19:02:51;;;;;;;;;;;;;;;-10.16;64.93;98183.38;4863529;29;20052;-72
2021/12/26 19:05:27;;;;;;;3.40;2.20;;;;;;;-10.21;64.04;98198.91;4862939;29;19923;-72
2021/12/26 19:07:57;;;;;;;8.05;3.00;;;;;;;-10.24;63.28;98201.50;4846267;29;20048;-73
2021/12/26 19:10:26;;;;;;;1.75;1.58;;;;;;;-10.08;63.84;98197.84;4846426;29;20414;-73
2021/12/26 19:13:21;;;;;;;2.63;1.90;;;;;;;-10.12;63.35;98219.38;4861571;29;20553;-73
2021/12/26 19:15:50;;;;;;;4.30;2.67;;;;;;;-10.32;63.12;98214.50;4861368;29;20044;-74
2021/12/26 19:18:15;;;;;;;5.25;3.08;;;;;;;-10.46;63.83;98225.81;4861466;29;20143;-73
2021/12/26 19:20:42;;;;;;;3.92;2.28;;;;;;;-10.36;64.97;98242.88;4861389;29;20055;-73
2021/12/26 19:23:07;;;;;;;5.18;2.72;;;;;;;-10.36;65.53;98232.56;4829041;29;20048;-73
2021/12/26 19:25:32;;;;;;;4.30;2.25;;;;;;;-10.43;64.51;98248.97;4861507;29;20041;-74
2021/12/26 19:27:59;;;;;;;2.90;2.03;;;;;;;-10.20;65.23;98259.88;4814438;29;20101;-73